Rochelle, Georgia
Current Conditions -  °F | °C
As of 11:35 AM on Sunday 21 Dec 2014 (Local Time) from KCKF Reporting Station
Overcast Overcast  
Wind Chill: 53°   Ceiling: 800
Heat Index: 53°   Visibility: 7mi
Dew Point: 50°   Wind: 10mph
Humidity: 90%   Direction: 70°ENE
Pressure: 30.17"   Gusts: NA
Location:  31.95°N, 83.46°W
Report Text: KCKF 211635Z AUTO 07009KT 7SM OVC008 12/10 A3017 RMK AO2 T01160100
Loading
Personal Weather Stations






























Interactive Weather Map New forecast layout! Learn more

10-Day Weather Forecast

Advertisements
Track Severe Weather on mobile